Tiempo atmosférico en la estación meteorológica de Valderrobres, Teruel (482 m.)



Fecha
DESCASC
Temp. máxima en grados centígrados (hora)
DESCASC
Temp. mínima en grados centígrados (hora)
DESCASC
Temp. media en grados centígrados
DESCASC
Racha de viento máxima en m/sg (hora)
DESCASC
Velocidad máxima media en intervalos de 10 minutos(hora)
DESCASC
Precipitaciones diarias en mm
DESCASC
Precipitaciones de 00:00 a 06:00 en mm
DESCASC
Precipitaciones de 06:00 a 12:00 en mm
DESCASC
Precipitaciones de 12:00 a 18:00 en mm
DESCASC
Precipitaciones de 18:00 a 24:00 en mm
DESCASC
11-05-2019 20.8 (16:10) 13 (00:00) 16.9 13.89 (13:20) 7.78 (19:50) 1 1 0 0 0
02-05-2019 20 (16:40) 10.5 (08:00) 15.3 6.11 (02:50) 3.61 (10:40) 0.6 0.2 0.4 0 0
10-05-2019 26.1 (15:10) 10.5 (00:00) 18.3 8.61 (11:30) 4.17 (11:30) 0 0 0 0 0
23-05-2019 27.8 (13:40) 8.4 (06:50) 18.1 7.5 (16:50) 3.33 (18:00) 0 0 0 0 0
22-05-2019 25.4 (18:20) 5.8 (07:10) 15.6 8.89 (16:00) 3.89 (16:00) 0 0 0 0 0
21-05-2019 23.3 (17:10) 4 (06:40) 13.6 7.22 (15:50) 3.89 (15:50) 0 0 0 0 0
20-05-2019 21.4 (18:50) 5.6 (07:10) 13.5 10 (14:30) 6.39 (10:50) 0 0 0 0 0
19-05-2019 17.3 (17:00) 8.6 (00:00) 12.9 14.17 (16:00) 8.06 (16:10) 0 0 0 0 0
18-05-2019 18 (18:40) 8 (00:00) 13 10.83 (19:20) 5.83 (19:20) 0 0 0 0 0
17-05-2019 16 (00:00) 8.7 (00:00) 12.3 15.28 (15:10) 7.78 (14:40) 2 0 2 0 0
16-05-2019 24.4 (14:50) 6 (00:00) 15.2 10.83 (15:40) 5.56 (17:00) 0 0 0 0 0
15-05-2019 27.6 (17:00) 5.9 (00:00) 16.8 8.61 (15:40) 4.44 (19:10) 0 0 0 0 0
14-05-2019 26.3 (18:30) 3.8 (00:00) 15 6.67 (18:10) 3.33 (14:30) 0 0 0 0 0
13-05-2019 25.4 (18:30) 4.7 (00:00) 15 7.5 (19:10) 4.44 (19:10) 0 0 0 0 0
12-05-2019 23 (18:00) 6.6 (00:00) 14.8 10.28 (19:40) 6.11 (18:50) 0 0 0 0 0
26-04-2019 17.9 (17:40) 3.8 (00:00) 10.8 10 (10:50) 5.83 (11:20) 0 0 0 0 0
09-05-2019 24.5 (17:50) 11.8 (00:00) 18.2 11.67 (12:30) 6.39 (12:30) 0 0 0 0 0
08-05-2019 25.4 (15:10) 11.8 (00:00) 18.6 12.22 (17:00) 5.83 (17:50) 0 0 0 0 0
07-05-2019 24.8 (15:30) 5.4 (00:00) 15.1 7.5 (17:40) 3.89 (18:20) 0 0 0 0 0
06-05-2019 21.7 (18:30) -0.1 (00:00) 10.8 9.17 (01:50) 4.17 (01:50) 0 0 0 0 0
05-05-2019 17.5 (18:10) 6.4 (00:00) 12 17.22 (03:10) 8.61 (03:00) 0 0 0 0 0
04-05-2019 18.2 (18:00) 8.2 (00:00) 13.2 15 (23:10) 7.5 (17:30) 0 0 0 0 0
03-05-2019 14.1 (18:50) 8.1 (00:00) 11.1 13.06 (19:00) 6.11 (19:00) 0 0 0 0 0
01-05-2019 23.4 (16:50) 2.8 (00:00) 13.1 6.39 (18:10) 3.61 (18:10) 0 0 0 0 0
30-04-2019 22.5 (18:20) 4.4 (00:00) 13.5 7.78 (18:00) 4.44 (15:20) 0 0 0 0 0
29-04-2019 21.3 (17:20) 4.1 (00:00) 12.7 9.17 (10:20) 4.72 (10:20) 0 0 0 0 0
28-04-2019 22 (18:20) 7.8 (00:00) 14.9 8.89 (04:10) 5 (14:10) 0 0 0 0 0
27-04-2019 20.2 (17:00) 3.9 (00:00) 12.1 9.17 (15:40) 5.28 (15:40) 0 0 0 0 0

Gráficas

Temp. máximas Temp. mínimas Temp. medias Precipitaciones Rachas de viento máximas Velocidades máximas media en intervalos de 10 minutos

Datos horarios

Fecha y hora oficial Temperatura (ºC) Velocidad del viento (km/h) Dirección del viento Racha (km/h) Dirección de racha Precipitación (mm) Presión (hPa) Tendencia (hPa) Humedad (%)
2019-05-25 23:00:00 14.8 11 Oeste 31 Oeste 0 -- -- 69
2019-05-25 22:00:00 15.8 10 Oeste 32 Noroeste 0 -- -- 66
2019-05-25 21:00:00 17.5 14 Oeste 37 Oeste 0 -- -- 60
2019-05-25 20:00:00 18.7 18 Oeste 35 Noroeste 0 -- -- 54
2019-05-25 19:00:00 19.5 19 Noroeste 33 Oeste 0 -- -- 52
2019-05-25 18:00:00 20.5 15 Oeste 37 Oeste 0 -- -- 53
2019-05-25 17:00:00 19.1 17 Noroeste 32 Noroeste 0 -- -- 55
2019-05-25 16:00:00 19.7 14 Noroeste 31 Oeste 0 -- -- 54
2019-05-25 15:00:00 18.9 19 Noroeste 33 Oeste 0 -- -- 58
2019-05-25 14:00:00 17.8 14 Noroeste 29 Oeste 0 -- -- 62
2019-05-25 13:00:00 16.6 12 Oeste 27 Oeste 0 -- -- 66
2019-05-25 12:00:00 14.9 12 Noroeste 29 Noroeste 0 -- -- 72
2019-05-25 11:00:00 13.6 10 Oeste 26 Oeste 0 -- -- 78
2019-05-25 10:00:00 12.5 15 Oeste 27 Oeste 0 -- -- 81
2019-05-25 09:00:00 12.1 10 Oeste 31 Oeste 0 -- -- 82
2019-05-25 08:00:00 11.6 8 Oeste 24 Oeste 0 -- -- 84
2019-05-25 07:00:00 11.2 8 Oeste 18 Oeste 0 -- -- 86
2019-05-25 06:00:00 11.1 8 Oeste 18 Sudoeste 0.2 -- -- 88
2019-05-25 05:00:00 11.2 7 Oeste 24 Oeste 0 -- -- 88
2019-05-25 04:00:00 11.4 12 Oeste 24 Oeste 0 -- -- 88
2019-05-25 03:00:00 11.6 11 Oeste 24 Noroeste 0 -- -- 88
2019-05-25 02:00:00 11.6 10 Oeste 23 Oeste 0 -- -- 92
2019-05-25 01:00:00 12 14 Oeste 27 Oeste 0 -- -- 90
2019-05-25 00:00:00 12.2 11 Oeste 26 Noroeste 0 -- -- 90
2019-05-24 23:00:00 12.6 10 Oeste 26 Oeste 0.2 -- -- 90
2019-05-24 22:00:00 12.8 9 Oeste 19 Oeste 0.4 -- -- 92
2019-05-24 21:00:00 13.1 8 Oeste 26 Oeste 0 -- -- 91
2019-05-24 20:00:00 13.1 11 Oeste 21 Noroeste 0.6 -- -- 93
2019-05-24 19:00:00 13.8 9 Noroeste 24 Noroeste 0.6 -- -- 92
2019-05-24 18:00:00 15.1 11 Oeste 29 Oeste 0 -- -- 82
2019-05-24 17:00:00 15.1 8 Oeste 21 Oeste 0 -- -- 83
2019-05-24 16:00:00 14.3 10 Oeste 22 Noroeste 0 -- -- 89
2019-05-24 15:00:00 13.5 0 Calma 12 Oeste 0.8 -- -- 95
2019-05-24 14:00:00 12.6 9 Oeste 28 Oeste 2 -- -- 95
2019-05-24 13:00:00 12.9 8 Oeste 14 Sudoeste 3.4 -- -- 95
2019-05-24 12:00:00 12.6 3 Oeste 15 Sudoeste 2.6 -- -- 95
2019-05-24 11:00:00 12.3 5 Oeste 26 Oeste 1.2 -- -- 95
2019-05-24 10:00:00 12.5 0 Calma 12 Oeste 4.4 -- -- 95
2019-05-24 09:00:00 12.5 6 Oeste 16 Oeste 1 -- -- 95
2019-05-24 08:00:00 13.4 5 Oeste 10 Oeste 0.2 -- -- 92
2019-05-24 07:00:00 13.4 3 Sudoeste 13 Noroeste 0.4 -- -- 93
2019-05-24 06:00:00 13.6 8 Oeste 23 Noroeste 0 -- -- 92
2019-05-24 05:00:00 14.8 5 Noroeste 12 Este 2.2 -- -- 94
2019-05-24 04:00:00 15.3 6 Oeste 27 Oeste 0.4 -- -- 89
2019-05-24 03:00:00 15.7 5 Este 10 Sudeste 0 -- -- 87
2019-05-24 02:00:00 16.1 3 Sudoeste 11 Sur 0 -- -- 83
2019-05-24 01:00:00 17.9 8 Sudeste 18 Oeste 0.6 -- -- 79
2019-05-24 00:00:00 20.1 5 Sudoeste 23 Noroeste 0 -- -- 56
2019-05-23 23:00:00 19.6 5 Oeste 13 Sur 0 -- -- 55
2019-05-23 22:00:00 19.9 0 Calma 10 Sudoeste 0 -- -- 56
2019-05-23 21:00:00 23.3 4 Sur 10 Sudeste 0 -- -- 48
2019-05-23 20:00:00 24.6 6 Sudeste 18 Este 0 -- -- 44
2019-05-23 19:00:00 25.2 7 Este 19 Sudeste 0 -- -- 41
2019-05-23 18:00:00 26.6 12 Sudeste 26 Sudeste 0 -- -- 42
2019-05-23 17:00:00 27.1 8 Nordeste 27 Nordeste 0 -- -- 36
2019-05-23 16:00:00 27.1 5 Sudoeste 23 Este 0 -- -- 28
2019-05-23 15:00:00 27.3 9 Noroeste 16 Nordeste 0 -- -- 29
2019-05-23 14:00:00 27.3 10 Noroeste 17 Oeste 0 -- -- 32
2019-05-23 13:00:00 26.6 7 Este 16 Nordeste 0 -- -- 36
2019-05-23 12:00:00 25.1 8 Nordeste 17 Nordeste 0 -- -- 40
2019-05-23 11:00:00 23.8 6 Este 13 Este 0 -- -- 44
2019-05-23 10:00:00 21 0 Calma -- -- 0 -- -- 57
2019-05-23 09:00:00 16 0 Calma -- -- 0 -- -- 70
2019-05-23 08:00:00 11 0 Calma -- -- 0 -- -- 86
2019-05-23 07:00:00 8.4 0 Calma -- -- 0 -- -- 91
2019-05-23 06:00:00 8.5 0 Calma -- -- 0 -- -- 90
2019-05-23 05:00:00 9 0 Calma 0 Calma 0 -- -- 89
2019-05-23 04:00:00 9.4 0 Calma 5 Oeste 0 -- -- 87
2019-05-23 03:00:00 10 0 Calma 4 Oeste 0 -- -- 86
2019-05-23 02:00:00 10.9 3 Oeste 4 Oeste 0 -- -- 82
2019-05-23 01:00:00 12.1 2 Oeste 4 Oeste 0 -- -- 78
2019-05-23 00:00:00 13.5 0 Calma 4 Oeste 0 -- -- 74
2019-05-22 23:00:00 15.8 0 Calma 6 Sur 0 -- -- 63
2019-05-22 22:00:00 18.7 2 Sur 6 Sudoeste 0 -- -- 53
2019-05-22 21:00:00 22.9 4 Sur 12 Sudeste 0 -- -- 43
2019-05-22 20:00:00 24.7 9 Nordeste 19 Nordeste 0 -- -- 39
2019-05-22 19:00:00 25.2 9 Norte 21 Nordeste 0 -- -- 28
2019-05-22 18:00:00 25.1 9 Norte 26 Noroeste 0 -- -- 30
2019-05-22 17:00:00 25.1 10 Noroeste 26 Oeste 0 -- -- 31
2019-05-22 16:00:00 24.5 14 Noroeste 32 Noroeste 0 -- -- 32
2019-05-22 15:00:00 24.3 10 Noroeste 24 Noroeste 0 -- -- 32
2019-05-22 14:00:00 23.8 7 Oeste 18 Oeste 0 -- -- 32
2019-05-22 13:00:00 22.5 5 Norte 17 Sudeste 0 -- -- 34
2019-05-22 12:00:00 21.1 4 Sur 15 Oeste 0 -- -- 36
2019-05-22 11:00:00 19.4 8 Este 17 Nordeste 0 -- -- 38
2019-05-22 10:00:00 16.6 0 Calma 6 Este 0 -- -- 46
2019-05-22 09:00:00 11.3 0 Calma 5 Oeste 0 -- -- 71
2019-05-22 08:00:00 6.6 0 Calma -- -- 0 -- -- 92
2019-05-22 07:00:00 5.9 0 Calma -- -- 0 -- -- 89
2019-05-22 06:00:00 6.5 0 Calma -- -- 0 -- -- 89
2019-05-22 05:00:00 6.9 0 Calma 4 Noroeste 0 -- -- 88
2019-05-22 04:00:00 7.6 0 Calma 4 Oeste 0 -- -- 86
2019-05-22 03:00:00 8.6 0 Calma 6 Noroeste 0 -- -- 83
2019-05-22 02:00:00 9.9 0 Calma 2 Sudoeste 0 -- -- 76
2019-05-22 01:00:00 10.6 0 Calma 6 Oeste 0 -- -- 76
2019-05-22 00:00:00 11.7 0 Calma 3 Este 0 -- -- 74
2019-05-21 23:00:00 13.5 0 Calma 5 Sudoeste 0 -- -- 61
2019-05-21 22:00:00 16.6 3 Sudoeste 8 Sudoeste 0 -- -- 53
2019-05-21 21:00:00 20.7 3 Sudoeste 17 Sudoeste 0 -- -- 44
2019-05-21 20:00:00 22.1 5 Sur 16 Sur 0 -- -- 43
2019-05-21 19:00:00 22.4 8 Sur 20 Sudeste 0 -- -- 46
2019-05-21 18:00:00 22.2 11 Sudeste 26 Noroeste 0 -- -- 48
2019-05-21 17:00:00 22.9 8 Oeste 20 Noroeste 0 -- -- 33
2019-05-21 16:00:00 22.1 9 Noroeste 26 Oeste 0 -- -- 34
2019-05-21 15:00:00 22.2 5 Sur 18 Noroeste 0 -- -- 36
2019-05-21 14:00:00 21.7 6 Nordeste 16 Este 0 -- -- 37
2019-05-21 13:00:00 20.7 9 Este 18 Este 0 -- -- 39
2019-05-21 12:00:00 19.1 5 Nordeste 13 Noroeste 0 -- -- 42
2019-05-21 11:00:00 17.4 4 Nordeste 9 Este 0 -- -- 46
2019-05-21 10:00:00 15.3 2 Sudeste 6 Este 0 -- -- 55
2019-05-21 09:00:00 12.2 0 Calma -- -- 0 -- -- 65
2019-05-21 08:00:00 6.9 0 Calma -- -- 0 -- -- 83
2019-05-21 07:00:00 4 0 Calma -- -- 0 -- -- 89
2019-05-21 06:00:00 4.2 0 Calma -- -- 0 -- -- 88
2019-05-21 05:00:00 4.8 0 Calma -- -- 0 -- -- 86
2019-05-21 04:00:00 5.4 0 Calma -- -- 0 -- -- 83
2019-05-21 03:00:00 6.2 0 Calma -- -- 0 -- -- 80
2019-05-21 02:00:00 7.1 0 Calma -- -- 0 -- -- 77
2019-05-21 01:00:00 8.3 0 Calma -- -- 0 -- -- 74
2019-05-21 00:00:00 10.5 0 Calma -- -- 0 -- -- 65
2019-05-20 23:00:00 12.7 0 Calma 5 Oeste 0 -- -- 56
2019-05-20 22:00:00 16.1 3 Sudoeste 7 Sur 0 -- -- 43
2019-05-20 21:00:00 19.6 0 Calma 18 Norte 0 -- -- 34
2019-05-20 20:00:00 20.7 8 Norte 21 Oeste 0 -- -- 30
2019-05-20 19:00:00 21.1 13 Noroeste 26 Oeste 0 -- -- 30
2019-05-20 18:00:00 21.2 13 Noroeste 31 Oeste 0 -- -- 30
2019-05-20 17:00:00 20.8 12 Noroeste 34 Noroeste 0 -- -- 31
2019-05-20 16:00:00 20.4 14 Noroeste 32 Oeste 0 -- -- 33
2019-05-20 15:00:00 19.4 18 Noroeste 36 Noroeste 0 -- -- 32
2019-05-20 14:00:00 18.7 15 Noroeste 31 Oeste 0 -- -- 38
2019-05-20 13:00:00 17.2 18 Noroeste 35 Noroeste 0 -- -- 40
2019-05-20 12:00:00 15.9 16 Noroeste 30 Oeste 0 -- -- 45
2019-05-20 11:00:00 14.2 17 Oeste 35 Oeste 0 -- -- 47
2019-05-20 10:00:00 13.2 10 Noroeste 27 Noroeste 0 -- -- 54
2019-05-20 09:00:00 11.5 10 Noroeste 19 Oeste 0 -- -- 61
2019-05-20 08:00:00 7.6 0 Calma 7 Oeste 0 -- -- 83
2019-05-20 07:00:00 5.8 0 Calma 10 Sudoeste 0 -- -- 85
2019-05-20 06:00:00 7.4 5 Sudoeste 10 Sudoeste 0 -- -- 80
2019-05-20 05:00:00 8.6 5 Sudoeste 17 Sudoeste 0 -- -- 75
2019-05-20 04:00:00 9.4 6 Sudoeste 24 Oeste 0 -- -- 73
2019-05-20 03:00:00 9.5 6 Sudoeste 15 Sudoeste 0 -- -- 71
2019-05-20 02:00:00 10.3 9 Oeste 24 Oeste 0 -- -- 67
2019-05-20 01:00:00 10.8 12 Oeste 25 Sudoeste 0 -- -- 66
2019-05-20 00:00:00 11.1 12 Oeste 30 Oeste 0 -- -- 66
2019-05-19 23:00:00 11.6 8 Oeste 29 Oeste 0 -- -- 65
2019-05-19 22:00:00 12.5 15 Oeste 40 Oeste 0 -- -- 61
2019-05-19 21:00:00 14 15 Oeste 43 Noroeste 0 -- -- 57
2019-05-19 20:00:00 15.4 24 Noroeste 43 Oeste 0 -- -- 51
2019-05-19 19:00:00 16.4 25 Noroeste 47 Oeste 0 -- -- 49
2019-05-19 18:00:00 16.6 27 Oeste 47 Oeste 0 -- -- 48
2019-05-19 17:00:00 17.3 23 Oeste 50 Oeste 0 -- -- 46
2019-05-19 16:00:00 16.5 27 Noroeste 51 Noroeste 0 -- -- 48
2019-05-19 15:00:00 16.2 24 Oeste 51 Noroeste 0 -- -- 51
2019-05-19 14:00:00 14.5 28 Noroeste 50 Noroeste 0 -- -- 56
2019-05-19 13:00:00 13.8 24 Oeste 45 Noroeste 0 -- -- 59
2019-05-19 12:00:00 13.3 22 Noroeste 46 Noroeste 0 -- -- 61
2019-05-19 11:00:00 12.7 21 Oeste 45 Noroeste 0 -- -- 61
2019-05-19 10:00:00 11.8 26 Noroeste 43 Oeste 0 -- -- 63
2019-05-19 09:00:00 11 14 Oeste 28 Noroeste 0 -- -- 63
2019-05-19 08:00:00 10.4 15 Oeste 27 Oeste 0 -- -- 65
2019-05-19 07:00:00 9.6 11 Oeste 22 Oeste 0 -- -- 69
2019-05-19 06:00:00 9.3 10 Oeste 28 Oeste 0 -- -- 71
2019-05-19 05:00:00 9 8 Oeste 24 Sudoeste 0 -- -- 74
2019-05-19 04:00:00 9.2 8 Oeste 29 Oeste 0 -- -- 76
2019-05-19 03:00:00 8.8 8 Oeste 23 Oeste 0 -- -- 80
2019-05-19 02:00:00 8.6 9 Oeste 24 Oeste 0 -- -- 81
2019-05-19 01:00:00 9.1 9 Oeste 26 Oeste 0 -- -- 79
2019-05-19 00:00:00 9.7 2 Oeste 27 Oeste 0 -- -- 80
2019-05-18 23:00:00 11 8 Oeste 26 Oeste 0 -- -- 67
2019-05-18 22:00:00 11.6 17 Oeste 39 Oeste 0 -- -- 65
2019-05-18 21:00:00 13.6 17 Oeste 30 Oeste 0 -- -- 54
2019-05-18 20:00:00 14.9 17 Oeste 39 Oeste 0 -- -- 48
2019-05-18 19:00:00 17.1 14 Noroeste 34 Noroeste 0 -- -- 38
2019-05-18 18:00:00 17.5 15 Noroeste 30 Oeste 0 -- -- 38
2019-05-18 17:00:00 16.6 14 Oeste 36 Noroeste 0 -- -- 38
2019-05-18 16:00:00 16.8 17 Noroeste 32 Noroeste 0 -- -- 40
2019-05-18 15:00:00 15.2 18 Noroeste 28 Noroeste 0 -- -- 47
2019-05-18 14:00:00 14.5 5 Oeste 23 Noroeste 0 -- -- 54
2019-05-18 13:00:00 14.1 10 Noroeste 30 Oeste 0 -- -- 53
2019-05-18 12:00:00 13.7 13 Noroeste 31 Noroeste 0 -- -- 53
2019-05-18 11:00:00 12.8 17 Noroeste 32 Oeste 0 -- -- 53
2019-05-18 10:00:00 12.1 12 Noroeste 26 Noroeste 0 -- -- 57
2019-05-18 09:00:00 10.3 12 Oeste 27 Oeste 0 -- -- 64
2019-05-18 08:00:00 10.2 13 Oeste 24 Noroeste 0 -- -- 64
2019-05-18 07:00:00 8 5 Sudoeste 22 Sudoeste 0 -- -- 74
2019-05-18 06:00:00 8.2 10 Oeste 28 Oeste 0 -- -- 73
2019-05-18 05:00:00 8.5 11 Oeste 27 Oeste 0 -- -- 74
2019-05-18 04:00:00 8.5 10 Oeste 26 Oeste 0 -- -- 76
2019-05-18 03:00:00 8.9 6 Oeste 25 Oeste 0 -- -- 74
2019-05-18 02:00:00 9.6 11 Oeste 26 Sudoeste 0 -- -- 72
2019-05-18 01:00:00 10.2 11 Oeste 25 Oeste 0 -- -- 70
2019-05-18 00:00:00 10.6 10 Oeste 29 Oeste 0 -- -- 69
2019-05-17 23:00:00 11 13 Oeste 31 Oeste 0 -- -- 68
2019-05-17 22:00:00 11.4 13 Oeste 35 Oeste 0 -- -- 67
2019-05-17 21:00:00 11.7 15 Oeste 48 Noroeste 0 -- -- 65
2019-05-17 20:00:00 12.6 21 Oeste 48 Oeste 0 -- -- 63
2019-05-17 19:00:00 13.2 23 Noroeste 53 Oeste 0 -- -- 62
2019-05-17 18:00:00 13.8 24 Noroeste 54 Oeste 0 -- -- 63
2019-05-17 17:00:00 13 26 Oeste 54 Oeste 0 -- -- 67
2019-05-17 16:00:00 12.4 25 Oeste 55 Noroeste 0 -- -- 71
2019-05-17 15:00:00 12 25 Noroeste 53 Noroeste 0 -- -- 75
2019-05-17 14:00:00 11.6 23 Noroeste 49 Oeste 0 -- -- 81
2019-05-17 13:00:00 10.9 25 Oeste 48 Noroeste 0 -- -- 86
2019-05-17 12:00:00 10 15 Oeste 35 Oeste 0.8 -- -- 92
2019-05-17 11:00:00 9.1 11 Oeste 27 Noroeste 0.8 -- -- 88
2019-05-17 10:00:00 9.1 15 Oeste 41 Oeste 0.2 -- -- 81
2019-05-17 09:00:00 8.7 17 Oeste 45 Oeste 0.2 -- -- 82
2019-05-17 08:00:00 9.6 23 Oeste 44 Oeste 0 -- -- 78
2019-05-17 07:00:00 10 21 Noroeste 35 Noroeste 0 -- -- 83
2019-05-17 06:00:00 11.7 0 Calma -- -- 0 -- -- 79
2019-05-17 05:00:00 12.5 0 Calma 35 Oeste 0 -- -- 74
2019-05-17 04:00:00 14 19 Oeste 45 Noroeste 0 -- -- 64
2019-05-17 03:00:00 14.6 8 Nordeste 31 Este 0 -- -- 75
2019-05-17 02:00:00 14.6 11 Este 24 Sudeste 0 -- -- 76
2019-05-17 01:00:00 15.1 7 Sudeste 19 Este 0 -- -- 70
2019-05-17 00:00:00 16 8 Sur 21 Oeste 0 -- -- 66
2019-05-16 23:00:00 16.9 8 Norte 30 Sudeste 0 -- -- 63
2019-05-16 22:00:00 16.7 12 Sudeste 30 Este 0 -- -- 70
2019-05-16 21:00:00 17.1 11 Este 28 Este 0 -- -- 70
2019-05-16 20:00:00 18.3 12 Sudeste 33 Este 0 -- -- 66
2019-05-16 19:00:00 20.3 10 Sudeste 30 Sudeste 0 -- -- 59
2019-05-16 18:00:00 21.7 19 Este 35 Sudeste 0 -- -- 55
2019-05-16 17:00:00 23.4 20 Sudeste 33 Sudeste 0 -- -- 49
2019-05-16 16:00:00 23.5 19 Este 39 Sudeste 0 -- -- 48
2019-05-16 15:00:00 24.2 15 Sudeste 30 Sudeste 0 -- -- 45
2019-05-16 14:00:00 23.5 6 Nordeste 15 Este 0 -- -- 42
2019-05-16 13:00:00 21.7 6 Sudeste 17 Sudeste 0 -- -- 46
2019-05-16 12:00:00 19.7 3 Este 13 Este 0 -- -- 48
2019-05-16 11:00:00 18 6 Este 13 Este 0 -- -- 51
2019-05-16 10:00:00 15.8 5 Este 11 Nordeste 0 -- -- 58
2019-05-16 09:00:00 12.1 2 Oeste 4 Oeste 0 -- -- 72
2019-05-16 08:00:00 8.4 0 Calma 2 Oeste 0 -- -- 89
2019-05-16 07:00:00 6 0 Calma 6 Sudoeste 0 -- -- 90
2019-05-16 06:00:00 6.7 0 Calma 5 Oeste 0 -- -- 89
2019-05-16 05:00:00 7.4 4 Oeste 8 Oeste 0 -- -- 86
2019-05-16 04:00:00 8.6 2 Sudoeste 7 Oeste 0 -- -- 83
2019-05-16 03:00:00 9.7 0 Calma 6 Sudoeste 0 -- -- 79
2019-05-16 02:00:00 10.7 2 Sudoeste 7 Sudoeste 0 -- -- 75
2019-05-16 01:00:00 12.1 0 Calma 9 Sur 0 -- -- 71
2019-05-16 00:00:00 13.5 3 Oeste 10 Oeste 0 -- -- 65
2019-05-15 23:00:00 14.1 3 Oeste 8 Sur 0 -- -- 65
2019-05-15 22:00:00 15.6 5 Sudoeste 12 Este 0 -- -- 60
2019-05-15 21:00:00 17.8 6 Sudeste 22 Este 0 -- -- 55
2019-05-15 20:00:00 20.5 11 Sudeste 27 Sudeste 0 -- -- 49
2019-05-15 19:00:00 22.5 15 Sudeste 26 Sudeste 0 -- -- 45
2019-05-15 18:00:00 24.4 11 Nordeste 27 Norte 0 -- -- 40
2019-05-15 17:00:00 27.6 14 Noroeste 27 Oeste 0 -- -- 23
2019-05-15 16:00:00 26.7 11 Noroeste 31 Noroeste 0 -- -- 26
2019-05-15 15:00:00 25.9 8 Noroeste 26 Noroeste 0 -- -- 31
2019-05-15 14:00:00 25 12 Oeste 26 Norte 0 -- -- 33
2019-05-15 13:00:00 23.6 11 Noroeste 26 Noroeste 0 -- -- 34
2019-05-15 12:00:00 21.8 11 Noroeste 24 Noroeste 0 -- -- 36
2019-05-15 11:00:00 20.2 13 Noroeste 23 Noroeste 0 -- -- 38
2019-05-15 10:00:00 18.8 6 Noroeste 22 Oeste 0 -- -- 42
2019-05-15 09:00:00 14.4 0 Calma 5 Oeste 0 -- -- 65
2019-05-15 08:00:00 8.8 0 Calma 3 Norte 0 -- -- 86
2019-05-15 07:00:00 5.9 2 Oeste 6 Oeste 0 -- -- 90
2019-05-15 06:00:00 6.8 0 Calma 6 Oeste 0 -- -- 87
2019-05-15 05:00:00 7.4 0 Calma 5 Sudeste 0 -- -- 86
2019-05-15 04:00:00 7.8 0 Calma 6 Oeste 0 -- -- 85
2019-05-15 03:00:00 8.5 2 Oeste 4 Noroeste 0 -- -- 84
2019-05-15 02:00:00 9.5 0 Calma 4 Oeste 0 -- -- 80
2019-05-15 01:00:00 10.8 0 Calma 4 Sudoeste 0 -- -- 76
2019-05-15 00:00:00 12.1 0 Calma 5 Sudoeste 0 -- -- 72
2019-05-14 23:00:00 14.3 0 Calma 6 Oeste 0 -- -- 61
2019-05-14 22:00:00 18 0 Calma 8 Este 0 -- -- 48
2019-05-14 21:00:00 22.7 4 Sudoeste 10 Sudoeste 0 -- -- 35
2019-05-14 20:00:00 25.5 5 Nordeste 11 Nordeste 0 -- -- 28
2019-05-14 19:00:00 26 5 Norte 24 Noroeste 0 -- -- 26
2019-05-14 18:00:00 26.2 8 Noroeste 18 Oeste 0 -- -- 25
2019-05-14 17:00:00 25.9 7 Norte 21 Norte 0 -- -- 26
2019-05-14 16:00:00 25.3 9 Norte 20 Oeste 0 -- -- 25
2019-05-14 15:00:00 24.4 9 Nordeste 20 Noroeste 0 -- -- 26
2019-05-14 14:00:00 23.3 7 Noroeste 18 Oeste 0 -- -- 28
2019-05-14 13:00:00 22.1 7 Este 20 Este 0 -- -- 31
2019-05-14 12:00:00 20.5 7 Noroeste 13 Noroeste 0 -- -- 33
2019-05-14 11:00:00 18 7 Noroeste 15 Oeste 0 -- -- 36
2019-05-14 10:00:00 15.9 7 Noroeste 13 Noroeste 0 -- -- 42
2019-05-14 09:00:00 11.1 0 Calma 3 Noroeste 0 -- -- 66
2019-05-14 08:00:00 6.2 0 Calma 4 Oeste 0 -- -- 87
2019-05-14 07:00:00 3.9 0 Calma 4 Oeste 0 -- -- 90
2019-05-14 06:00:00 4.5 2 Oeste 5 Oeste 0 -- -- 88
2019-05-14 05:00:00 5.4 0 Calma 4 Oeste 0 -- -- 87
2019-05-14 04:00:00 6.3 0 Calma 4 Oeste 0 -- -- 84
2019-05-14 03:00:00 7.4 0 Calma 4 Sudoeste 0 -- -- 81
2019-05-14 02:00:00 8.8 0 Calma 5 Sudoeste 0 -- -- 76
2019-05-14 01:00:00 10.1 0 Calma 6 Oeste 0 -- -- 73
2019-05-14 00:00:00 11.8 0 Calma 9 Sudoeste 0 -- -- 62
2019-05-13 23:00:00 13.2 0 Calma 8 Sudoeste 0 -- -- 61
2019-05-13 22:00:00 15.5 4 Sudoeste 14 Sudeste 0 -- -- 53
2019-05-13 21:00:00 18.3 9 Sudeste 20 Sudeste 0 -- -- 48
2019-05-13 20:00:00 20.9 12 Sudeste 27 Este 0 -- -- 42
2019-05-13 19:00:00 23.1 13 Este 25 Sudeste 0 -- -- 39
2019-05-13 18:00:00 25 5 Nordeste 19 Norte 0 -- -- 18
2019-05-13 17:00:00 24.4 6 Sudoeste 25 Noroeste 0 -- -- 20
2019-05-13 16:00:00 23.5 5 Noroeste 19 Oeste 0 -- -- 21
2019-05-13 15:00:00 22.7 7 Noroeste 21 Noroeste 0 -- -- 23
2019-05-13 14:00:00 21.5 8 Noroeste 26 Oeste 0 -- -- 29
2019-05-13 13:00:00 19.5 10 Oeste 23 Oeste 0 -- -- 32
2019-05-13 12:00:00 17.9 11 Noroeste 23 Noroeste 0 -- -- 37
2019-05-13 11:00:00 16.1 12 Noroeste 23 Noroeste 0 -- -- 43
2019-05-13 10:00:00 14.2 11 Noroeste 24 Noroeste 0 -- -- 48
2019-05-13 09:00:00 12.5 11 Noroeste 21 Noroeste 0 -- -- 53
2019-05-13 08:00:00 7.7 3 Este 7 Nordeste 0 -- -- 79
2019-05-13 07:00:00 4.8 0 Calma 5 Oeste 0 -- -- 84
2019-05-13 06:00:00 5.8 0 Calma 9 Oeste 0 -- -- 82
2019-05-13 05:00:00 6.7 2 Oeste 8 Oeste 0 -- -- 79
2019-05-13 04:00:00 7.9 0 Calma 5 Noroeste 0 -- -- 73
2019-05-13 03:00:00 9.9 2 Este 10 Sur 0 -- -- 63
2019-05-13 02:00:00 12.3 3 Sudoeste 15 Oeste 0 -- -- 53
2019-05-13 01:00:00 12.4 5 Sudoeste 14 Oeste 0 -- -- 49
2019-05-13 00:00:00 14.5 5 Sudoeste 19 Oeste 0 -- -- 43
2019-05-12 23:00:00 16.6 5 Oeste 25 Oeste 0 -- -- 39
2019-05-12 22:00:00 18 9 Oeste 27 Oeste 0 -- -- 36
2019-05-12 21:00:00 20 11 Oeste 31 Noroeste 0 -- -- 32
2019-05-12 20:00:00 22.6 16 Oeste 37 Oeste 0 -- -- 25
2019-05-12 19:00:00 22.6 19 Noroeste 36 Oeste 0 -- -- 24
2019-05-12 18:00:00 23 17 Oeste 31 Oeste 0 -- -- 23
2019-05-12 17:00:00 22.1 16 Noroeste 31 Noroeste 0 -- -- 26
2019-05-12 16:00:00 21.1 14 Noroeste 27 Noroeste 0 -- -- 30
2019-05-12 15:00:00 20 14 Noroeste 29 Oeste 0 -- -- 32
2019-05-12 14:00:00 18.8 13 Noroeste 27 Noroeste 0 -- -- 34
2019-05-12 13:00:00 17.5 16 Noroeste 30 Oeste 0 -- -- 34
2019-05-12 12:00:00 16.1 11 Oeste 26 Oeste 0 -- -- 39
2019-05-12 11:00:00 14.1 14 Noroeste 33 Noroeste 0 -- -- 42
2019-05-12 10:00:00 12.6 17 Noroeste 30 Noroeste 0 -- -- 47
2019-05-12 09:00:00 11.7 10 Oeste 25 Noroeste 0 -- -- 52
2019-05-12 08:00:00 9.3 4 Este 9 Oeste 0 -- -- 68
2019-05-12 07:00:00 6.7 2 Sur 8 Oeste 0 -- -- 70
2019-05-12 06:00:00 7.5 5 Oeste 14 Oeste 0 -- -- 66
2019-05-12 05:00:00 8.4 3 Oeste 13 Oeste 0 -- -- 65
2019-05-12 04:00:00 8.9 6 Oeste 13 Oeste 0 -- -- 62
2019-05-12 03:00:00 10.9 5 Oeste 28 Oeste 0 -- -- 53
2019-05-12 02:00:00 12 13 Oeste 27 Oeste 0 -- -- 51
2019-05-12 01:00:00 12.7 7 Oeste 28 Noroeste 0 -- -- 50
2019-05-12 00:00:00 13.7 11 Oeste 36 Noroeste 0 -- -- 49
2019-05-11 23:00:00 14.6 14 Oeste 35 Oeste 0 -- -- 47
2019-05-11 22:00:00 16 16 Oeste 39 Oeste 0 -- -- 44
2019-05-11 21:00:00 17.2 14 Oeste 42 Noroeste 0 -- -- 40
2019-05-11 20:00:00 19 21 Oeste 46 Noroeste 0 -- -- 39
2019-05-11 19:00:00 20.2 19 Oeste 44 Noroeste 0 -- -- 35
2019-05-11 18:00:00 20.5 25 Noroeste 47 Oeste 0 -- -- 37
2019-05-11 17:00:00 20.6 26 Oeste 48 Noroeste 0 -- -- 43
2019-05-11 16:00:00 20.3 21 Oeste 39 Oeste 0 -- -- 46
2019-05-11 15:00:00 19.5 26 Noroeste 45 Noroeste 0 -- -- 49
2019-05-11 14:00:00 19.4 21 Noroeste 50 Oeste 0 -- -- 53
2019-05-11 13:00:00 18.5 21 Noroeste 37 Noroeste 0 -- -- 56
2019-05-11 12:00:00 17.1 17 Oeste 30 Oeste 0 -- -- 63
2019-05-11 11:00:00 17 13 Oeste 22 Oeste 0 -- -- 67
2019-05-11 10:00:00 16.1 10 Oeste 22 Oeste 0 -- -- 74
2019-05-11 09:00:00 16.2 6 Oeste 16 Noroeste 0 -- -- 75
2019-05-11 08:00:00 15 3 Oeste 15 Oeste 0 -- -- 82
2019-05-11 07:00:00 13.3 6 Oeste 13 Oeste 0 -- -- 87
2019-05-11 06:00:00 13.3 3 Sur 15 Oeste 0 -- -- 92
2019-05-11 05:00:00 14 3 Sudoeste 9 Oeste 0 -- -- 88
2019-05-11 04:00:00 15.4 0 Calma 7 Sur 0 -- -- 88
2019-05-11 03:00:00 16.3 0 Calma 14 Sur 0.2 -- -- 86
2019-05-11 02:00:00 16.7 6 Sudoeste 20 Sudeste 0.2 -- -- 82
2019-05-11 01:00:00 17.9 8 Sudoeste 30 Oeste 0.6 -- -- 77
2019-05-11 00:00:00 19.7 3 Sudoeste 7 Sur 0 -- -- 61
2019-05-10 23:00:00 21.1 5 Sudoeste 18 Noroeste 0 -- -- 52
2019-05-10 22:00:00 20.7 2 Sudoeste 6 Sur 0 -- -- 63
2019-05-10 21:00:00 22.2 2 Sudoeste 10 Este 0 -- -- 56
2019-05-10 20:00:00 23.5 5 Nordeste 16 Sudeste 0 -- -- 50
2019-05-10 19:00:00 24.1 8 Sudeste 17 Este 0 -- -- 48
2019-05-10 18:00:00 23.9 6 Sudeste 19 Sudeste 0 -- -- 49
2019-05-10 17:00:00 24.2 9 Este 22 Este 0 -- -- 48
2019-05-10 16:00:00 24.9 13 Sudeste 25 Oeste 0 -- -- 46
2019-05-10 15:00:00 25.8 12 Noroeste 26 Sudoeste 0 -- -- 40
2019-05-10 14:00:00 25.5 13 Noroeste 26 Noroeste 0 -- -- 43
2019-05-10 13:00:00 24.7 6 Norte 21 Oeste 0 -- -- 45
2019-05-10 12:00:00 23.2 11 Noroeste 31 Oeste 0 -- -- 48
2019-05-10 11:00:00 22.8 11 Noroeste 24 Oeste 0 -- -- 53
2019-05-10 10:00:00 21 7 Noroeste 12 Oeste 0 -- -- 60
2019-05-10 09:00:00 18.7 4 Este 9 Sudeste 0 -- -- 66
2019-05-10 08:00:00 13.9 0 Calma 6 Oeste 0 -- -- 86
2019-05-10 07:00:00 13.2 3 Sudoeste 10 Oeste 0 -- -- 87
2019-05-10 06:00:00 10.6 7 Oeste 10 Oeste 0 -- -- 87
2019-05-10 05:00:00 10.6 3 Oeste 6 Oeste 0 -- -- 85
2019-05-10 04:00:00 11.2 0 Calma 4 Oeste 0 -- -- 82
2019-05-10 03:00:00 11.9 3 Oeste 5 Oeste 0 -- -- 78
2019-05-10 02:00:00 13 0 Calma 5 Oeste 0 -- -- 73
2019-05-10 01:00:00 14.1 0 Calma 6 Sudoeste 0 -- -- 68
2019-05-10 00:00:00 15.9 0 Calma 9 Sudoeste 0 -- -- 61
2019-05-09 23:00:00 18.2 0 Calma 5 Sur 0 -- -- 59
2019-05-09 22:00:00 19.7 3 Sur 14 Sudeste 0 -- -- 49
2019-05-09 21:00:00 20.7 4 Nordeste 14 Este 0 -- -- 43
2019-05-09 20:00:00 22.4 4 Nordeste 15 Este 0 -- -- 32
2019-05-09 19:00:00 23.7 7 Nordeste 18 Este 0 -- -- 27
2019-05-09 18:00:00 24.2 11 Norte 27 Noroeste 0 -- -- 25
2019-05-09 17:00:00 23.1 8 Norte 27 Oeste 0 -- -- 29
2019-05-09 16:00:00 22.6 8 Oeste 26 Oeste 0 -- -- 26
2019-05-09 15:00:00 22.4 14 Oeste 30 Noroeste 0 -- -- 26
2019-05-09 14:00:00 21 15 Noroeste 37 Oeste 0 -- -- 29
2019-05-09 13:00:00 19.5 22 Noroeste 42 Noroeste 0 -- -- 32
2019-05-09 12:00:00 18.1 16 Oeste 33 Noroeste 0 -- -- 34
2019-05-09 11:00:00 16.3 10 Oeste 30 Oeste 0 -- -- 43
2019-05-09 10:00:00 15.1 12 Noroeste 28 Noroeste 0 -- -- 50
2019-05-09 09:00:00 13.3 9 Oeste 27 Oeste 0 -- -- 56
2019-05-09 08:00:00 12.1 9 Oeste 21 Oeste 0 -- -- 58
2019-05-09 07:00:00 12.4 8 Oeste 25 Oeste 0 -- -- 54
2019-05-09 06:00:00 12.2 6 Oeste 20 Oeste 0 -- -- 54
2019-05-09 05:00:00 13.6 4 Sudoeste 30 Oeste 0 -- -- 48
2019-05-09 04:00:00 14.8 7 Noroeste 24 Oeste 0 -- -- 44
2019-05-09 03:00:00 16.4 11 Oeste 32 Oeste 0 -- -- 43
2019-05-09 02:00:00 17.7 13 Oeste 25 Noroeste 0 -- -- 54
2019-05-09 01:00:00 18.3 13 Oeste 29 Oeste 0 -- -- 49
2019-05-09 00:00:00 19.3 10 Oeste 22 Oeste 0 -- -- 44
2019-05-08 23:00:00 19.7 6 Oeste 30 Oeste 0 -- -- 42
2019-05-08 22:00:00 20.4 10 Oeste 23 Oeste 0 -- -- 41
2019-05-08 21:00:00 21.4 12 Oeste 32 Oeste 0 -- -- 39
2019-05-08 20:00:00 22.8 13 Oeste 33 Oeste 0 -- -- 38
2019-05-08 19:00:00 23.7 18 Oeste 38 Oeste 0 -- -- 40
2019-05-08 18:00:00 24.2 21 Oeste 41 Oeste 0 -- -- 39
2019-05-08 17:00:00 25 18 Oeste 44 Oeste 0 -- -- 40
2019-05-08 16:00:00 24.5 17 Oeste 36 Noroeste 0 -- -- 41
2019-05-08 15:00:00 24.7 17 Oeste 36 Oeste 0 -- -- 40
2019-05-08 14:00:00 24.5 13 Oeste 30 Oeste 0 -- -- 39
2019-05-08 13:00:00 23.8 15 Oeste 27 Noroeste 0 -- -- 41
2019-05-08 12:00:00 21.6 10 Oeste 26 Oeste 0 -- -- 47
2019-05-08 11:00:00 17.5 3 Este 6 Sudeste 0 -- -- 74
2019-05-08 10:00:00 14.8 0 Calma 9 Nordeste 0 -- -- 85
2019-05-08 09:00:00 13.4 3 Oeste 6 Oeste 0 -- -- 87
2019-05-08 08:00:00 12.7 0 Calma 4 Oeste 0 -- -- 89
2019-05-08 07:00:00 12.5 0 Calma 4 Oeste 0 -- -- 88
2019-05-08 06:00:00 12.5 0 Calma 9 Oeste 0 -- -- 88
2019-05-08 05:00:00 12.1 0 Calma -- -- 0 -- -- 89
2019-05-08 04:00:00 11.8 0 Calma 5 Noroeste 0 -- -- 89
2019-05-08 03:00:00 12.4 2 Oeste 5 Oeste 0 -- -- 85
2019-05-08 02:00:00 13.5 0 Calma -- -- 0 -- -- 83
2019-05-08 01:00:00 14.1 0 Calma 4 Oeste 0 -- -- 83
2019-05-08 00:00:00 14.5 3 Oeste 4 Oeste 0 -- -- 81
2019-05-07 23:00:00 15.5 0 Calma 7 Oeste 0 -- -- 77
2019-05-07 22:00:00 17 4 Sudoeste 10 Oeste 0 -- -- 72
2019-05-07 21:00:00 19.7 3 Sudeste 11 Nordeste 0 -- -- 63
2019-05-07 20:00:00 22 0 Calma 17 Nordeste 0 -- -- 56
2019-05-07 19:00:00 24.2 8 Nordeste 22 Sudeste 0 -- -- 48
2019-05-07 18:00:00 24.2 13 Sudeste 27 Este 0 -- -- 46
2019-05-07 17:00:00 23.6 12 Este 23 Nordeste 0 -- -- 51
2019-05-07 16:00:00 24.8 9 Nordeste 24 Nordeste 0 -- -- 44
2019-05-07 15:00:00 24.5 10 Este 20 Nordeste 0 -- -- 42
2019-05-07 14:00:00 23.9 5 Noroeste 18 Noroeste 0 -- -- 37
2019-05-07 13:00:00 23.1 8 Norte 19 Oeste 0 -- -- 39
2019-05-07 12:00:00 21.7 5 Norte 15 Nordeste 0 -- -- 42
2019-05-07 11:00:00 19.5 3 Este 9 Este 0 -- -- 50
2019-05-07 10:00:00 16 0 Calma 0 Calma 0 -- -- 58
2019-05-07 09:00:00 11.7 0 Calma -- -- 0 -- -- 73
2019-05-07 08:00:00 7.3 0 Calma -- -- 0 -- -- 87
2019-05-07 07:00:00 5.4 0 Calma -- -- 0 -- -- 88
2019-05-07 06:00:00 5.7 0 Calma -- -- 0 -- -- 88
2019-05-07 05:00:00 5.8 0 Calma -- -- 0 -- -- 86
2019-05-07 04:00:00 5.9 0 Calma -- -- 0 -- -- 84
2019-05-07 03:00:00 6.3 0 Calma -- -- 0 -- -- 83
2019-05-07 02:00:00 7 0 Calma -- -- 0 -- -- 80
2019-05-07 01:00:00 7.9 0 Calma -- -- 0 -- -- 74
2019-05-07 00:00:00 9.1 0 Calma -- -- 0 -- -- 68
2019-05-06 23:00:00 11 0 Calma -- -- 0 -- -- 61
2019-05-06 22:00:00 13.6 0 Calma 8 Sudeste 0 -- -- 45
2019-05-06 21:00:00 17.5 3 Sudoeste 8 Sudoeste 0 -- -- 34
2019-05-06 20:00:00 21.1 5 Nordeste 13 Este 0 -- -- 24
2019-05-06 19:00:00 21.4 6 Este 17 Oeste 0 -- -- 23
2019-05-06 18:00:00 21.5 8 Norte 22 Norte 0 -- -- 22
2019-05-06 17:00:00 21 12 Noroeste 26 Noroeste 0 -- -- 21
2019-05-06 16:00:00 20.8 10 Oeste 23 Oeste 0 -- -- 18
2019-05-06 15:00:00 19.8 7 Sudoeste 19 Noroeste 0 -- -- 17
2019-05-06 14:00:00 18.4 9 Noroeste 20 Noroeste 0 -- -- 20
2019-05-06 13:00:00 16.8 9 Noroeste 24 Oeste 0 -- -- 25
2019-05-06 12:00:00 15.3 14 Noroeste 21 Noroeste 0 -- -- 27
2019-05-06 11:00:00 12.7 6 Noroeste 14 Noroeste 0 -- -- 38
2019-05-06 10:00:00 10.6 6 Noroeste 12 Oeste 0 -- -- 42
2019-05-06 09:00:00 6.7 0 Calma 5 Sudeste 0 -- -- 59
2019-05-06 08:00:00 2 0 Calma 6 Sudeste 0 -- -- 79
2019-05-06 07:00:00 0.1 0 Calma 9 Oeste 0 -- -- 82
2019-05-06 06:00:00 1.3 2 Sudeste 9 Oeste 0 -- -- 79
2019-05-06 05:00:00 3.4 0 Calma 8 Oeste 0 -- -- 67
2019-05-06 04:00:00 6.3 2 Sur 16 Oeste 0 -- -- 51
2019-05-06 03:00:00 8.2 10 Oeste 23 Noroeste 0 -- -- 45
2019-05-06 02:00:00 8.8 13 Oeste 33 Oeste 0 -- -- 44
2019-05-06 01:00:00 9.2 5 Oeste 17 Oeste 0 -- -- 42
2019-05-06 00:00:00 10 11 Oeste 24 Noroeste 0 -- -- 40
2019-05-05 23:00:00 8.5 4 Oeste 10 Oeste 0 -- -- 46
2019-05-05 22:00:00 11.5 6 Sudoeste 24 Noroeste 0 -- -- 31
2019-05-05 21:00:00 13.4 12 Oeste 31 Oeste 0 -- -- 26
2019-05-05 20:00:00 16.1 16 Oeste 37 Oeste 0 -- -- 23
2019-05-05 19:00:00 17.1 15 Oeste 36 Noroeste 0 -- -- 22
2019-05-05 18:00:00 17.2 19 Noroeste 39 Oeste 0 -- -- 23
2019-05-05 17:00:00 16.7 19 Noroeste 39 Noroeste 0 -- -- 23
2019-05-05 16:00:00 15.9 22 Noroeste 39 Noroeste 0 -- -- 24
2019-05-05 15:00:00 14.8 24 Noroeste 42 Oeste 0 -- -- 27
2019-05-05 14:00:00 14.1 20 Oeste 42 Oeste 0 -- -- 29
2019-05-05 13:00:00 12.9 19 Noroeste 38 Noroeste 0 -- -- 31
2019-05-05 12:00:00 11.2 20 Noroeste 33 Noroeste 0 -- -- 36
2019-05-05 11:00:00 10 15 Oeste 35 Noroeste 0 -- -- 43
2019-05-05 10:00:00 8.7 17 Oeste 38 Oeste 0 -- -- 45
2019-05-05 09:00:00 7.7 21 Oeste 37 Oeste 0 -- -- 51
2019-05-05 08:00:00 7.1 16 Oeste 34 Oeste 0 -- -- 56
2019-05-05 07:00:00 6.6 13 Oeste 34 Sudoeste 0 -- -- 58
2019-05-05 06:00:00 7.1 12 Oeste 42 Oeste 0 -- -- 63
2019-05-05 05:00:00 7.9 20 Oeste 51 Oeste 0 -- -- 63
2019-05-05 04:00:00 8.5 13 Noroeste 62 Oeste 0 -- -- 66
2019-05-05 03:00:00 9.2 31 Oeste 59 Noroeste 0 -- -- 63
2019-05-05 02:00:00 10.1 30 Noroeste 57 Oeste 0 -- -- 64
2019-05-05 01:00:00 10.8 20 Oeste 53 Oeste 0 -- -- 65
2019-05-05 00:00:00 11.7 22 Oeste 54 Oeste 0 -- -- 59
2019-05-04 23:00:00 12.4 18 Oeste 49 Oeste 0 -- -- 51
2019-05-04 22:00:00 13.4 16 Oeste 44 Oeste 0 -- -- 48
2019-05-04 21:00:00 14.8 18 Oeste 42 Noroeste 0 -- -- 47
2019-05-04 20:00:00 16.5 24 Noroeste 50 Norte 0 -- -- 42
2019-05-04 19:00:00 17.7 19 Noroeste 45 Noroeste 0 -- -- 39
2019-05-04 18:00:00 18.2 19 Oeste 42 Oeste 0 -- -- 35
2019-05-04 17:00:00 18 18 Noroeste 42 Noroeste 0 -- -- 36
2019-05-04 16:00:00 17.3 20 Noroeste 48 Oeste 0 -- -- 40
2019-05-04 15:00:00 16.7 18 Noroeste 39 Noroeste 0 -- -- 44
2019-05-04 14:00:00 15.8 21 Noroeste 37 Noroeste 0 -- -- 47
2019-05-04 13:00:00 14.1 15 Noroeste 30 Oeste 0 -- -- 51
2019-05-04 12:00:00 12.3 15 Noroeste 27 Oeste 0 -- -- 59
2019-05-04 11:00:00 10.6 10 Oeste 22 Oeste 0 -- -- 64
2019-05-04 10:00:00 9.7 5 Oeste 22 Oeste 0 -- -- 69
2019-05-04 09:00:00 9.1 12 Oeste 23 Noroeste 0 -- -- 70
2019-05-04 08:00:00 8.7 9 Oeste 25 Oeste 0 -- -- 71
2019-05-04 07:00:00 8.7 9 Oeste 21 Oeste 0 -- -- 71
2019-05-04 06:00:00 8.8 8 Oeste 21 Oeste 0 -- -- 72
2019-05-04 05:00:00 8.9 11 Oeste 23 Oeste 0 -- -- 72
2019-05-04 04:00:00 8.9 10 Oeste 29 Sudoeste 0 -- -- 72
2019-05-04 03:00:00 8.2 9 Oeste 24 Oeste 0 -- -- 74
2019-05-04 02:00:00 8.5 8 Oeste 21 Oeste 0 -- -- 70
2019-05-04 01:00:00 8.9 8 Oeste 28 Oeste 0 -- -- 68
2019-05-04 00:00:00 9.5 11 Oeste 36 Noroeste 0 -- -- 67
2019-05-03 23:00:00 10.6 16 Oeste 36 Oeste 0 -- -- 64
2019-05-03 22:00:00 11.5 17 Oeste 35 Oeste 0 -- -- 63
2019-05-03 21:00:00 11 3 Oeste 15 Oeste 0 -- -- 76
2019-05-03 20:00:00 11.3 6 Oeste 35 Noroeste 0 -- -- 74
2019-05-03 19:00:00 13.7 22 Oeste 47 Oeste 0 -- -- 54
2019-05-03 18:00:00 12.6 13 Oeste 25 Oeste 0 -- -- 60
2019-05-03 17:00:00 11.3 16 Noroeste 32 Oeste 0 -- -- 67
2019-05-03 16:00:00 10.6 12 Oeste 36 Oeste 0 -- -- 69
2019-05-03 15:00:00 11.8 21 Oeste 35 Oeste 0 -- -- 60
2019-05-03 14:00:00 11.5 18 Noroeste 34 Oeste 0 -- -- 63
2019-05-03 13:00:00 11.2 18 Oeste 31 Oeste 0 -- -- 61
2019-05-03 12:00:00 11.2 17 Oeste 29 Oeste 0 -- -- 65
2019-05-03 11:00:00 10.7 15 Oeste 26 Oeste 0 -- -- 68
2019-05-03 10:00:00 10 8 Oeste 21 Oeste 0 -- -- 68
2019-05-03 09:00:00 9.5 3 Oeste 17 Oeste 0 -- -- 73
2019-05-03 08:00:00 9.2 4 Sudoeste 22 Noroeste 0 -- -- 74
2019-05-03 07:00:00 9.6 10 Noroeste 19 Oeste 0 -- -- 72
2019-05-03 06:00:00 9.4 5 Oeste 13 Oeste 0 -- -- 71
2019-05-03 05:00:00 8.8 0 Calma 5 Oeste 0 -- -- 84
2019-05-03 04:00:00 8.5 0 Calma 4 Sur 0 -- -- 85
2019-05-03 03:00:00 8.3 0 Calma 6 Sudeste 0 -- -- 83
2019-05-03 02:00:00 8.6 2 Sudeste 5 Sudeste 0 -- -- 78
2019-05-03 01:00:00 10.3 0 Calma 9 Sudoeste 0 -- -- 68
2019-05-03 00:00:00 12.4 7 Oeste 21 Noroeste 0 -- -- 59
2019-05-02 23:00:00 13.6 4 Oeste 15 Oeste 0 -- -- 59
2019-05-02 22:00:00 14.3 4 Sudoeste 8 Noroeste 0 -- -- 73
2019-05-02 21:00:00 16.7 3 Sur 9 Sudoeste 0 -- -- 65
2019-05-02 20:00:00 18.9 2 Sur 12 Este 0 -- -- 61
2019-05-02 19:00:00 18.7 7 Sudeste 15 Sudoeste 0 -- -- 60
2019-05-02 18:00:00 18.6 10 Sudoeste 19 Sur 0 -- -- 61
2019-05-02 17:00:00 19.8 4 Norte 11 Noroeste 0 -- -- 51
2019-05-02 16:00:00 19.6 4 Este 14 Este 0 -- -- 51
2019-05-02 15:00:00 19.7 5 Este 17 Este 0 -- -- 51
2019-05-02 14:00:00 18.2 8 Noroeste 19 Norte 0 -- -- 55
2019-05-02 13:00:00 17 5 Noroeste 18 Oeste 0 -- -- 55
2019-05-02 12:00:00 15.4 8 Noroeste 19 Oeste 0 -- -- 61
2019-05-02 11:00:00 13.7 11 Noroeste 21 Oeste 0 -- -- 67
2019-05-02 10:00:00 12.5 10 Noroeste 16 Noroeste 0 -- -- 73
2019-05-02 09:00:00 11.5 5 Noroeste 11 Oeste 0 -- -- 79
2019-05-02 08:00:00 10.5 4 Sudoeste 8 Sudoeste 0 -- -- 89
2019-05-02 07:00:00 10.7 0 Calma 11 Noroeste 0.4 -- -- 89
2019-05-02 06:00:00 11.2 2 Sudoeste 8 Sudoeste 0 -- -- 84
2019-05-02 05:00:00 11.5 5 Sudoeste 15 Sudoeste 0 -- -- 84
2019-05-02 04:00:00 12.6 6 Sudoeste 18 Oeste 0.2 -- -- 77
2019-05-02 03:00:00 13.1 6 Oeste 22 Oeste 0 -- -- 73
2019-05-02 02:00:00 12.3 0 Calma 7 Oeste 0 -- -- 84
2019-05-02 01:00:00 12.2 0 Calma 6 Oeste 0 -- -- 84
2019-05-02 00:00:00 12.7 0 Calma 2 Noroeste 0 -- -- 81
2019-05-01 23:00:00 13.7 0 Calma 8 Sudoeste 0 -- -- 76
2019-05-01 22:00:00 15.9 3 Sudoeste 8 Sudoeste 0 -- -- 67
2019-05-01 21:00:00 18.6 3 Sudeste 15 Sur 0 -- -- 59
2019-05-01 20:00:00 20.1 7 Sudeste 15 Sudeste 0 -- -- 56
2019-05-01 19:00:00 20.4 10 Sudeste 23 Sudeste 0 -- -- 55
2019-05-01 18:00:00 22.4 8 Este 17 Nordeste 0 -- -- 52
2019-05-01 17:00:00 23.2 9 Este 19 Este 0 -- -- 44
2019-05-01 16:00:00 23.2 9 Este 21 Nordeste 0 -- -- 40
2019-05-01 15:00:00 22.5 9 Este 18 Nordeste 0 -- -- 32
2019-05-01 14:00:00 21.6 7 Nordeste 17 Norte 0 -- -- 30
2019-05-01 13:00:00 20.8 8 Este 16 Nordeste 0 -- -- 38
2019-05-01 12:00:00 18.6 3 Sudoeste 10 Noroeste 0 -- -- 36
2019-05-01 11:00:00 16.8 6 Oeste 10 Oeste 0 -- -- 38
2019-05-01 10:00:00 12.3 0 Calma 5 Este 0 -- -- 61
2019-05-01 09:00:00 7.2 0 Calma 4 Oeste 0 -- -- 84
2019-05-01 08:00:00 4 0 Calma 4 Noroeste 0 -- -- 94
2019-05-01 07:00:00 2.9 0 Calma 5 Oeste 0 -- -- 93
2019-05-01 06:00:00 3.4 0 Calma 3 Oeste 0 -- -- 91
2019-05-01 05:00:00 4.2 3 Oeste 4 Oeste 0 -- -- 90
2019-05-01 04:00:00 4.8 0 Calma 5 Oeste 0 -- -- 89
2019-05-01 03:00:00 5.7 0 Calma 5 Sudoeste 0 -- -- 87
2019-05-01 02:00:00 6.6 0 Calma -- -- 0 -- -- 84
2019-05-01 01:00:00 7.8 0 Calma -- -- 0 -- -- 78
2019-05-01 00:00:00 9.1 0 Calma -- -- 0 -- -- 74
2019-04-30 23:00:00 11.1 0 Calma 5 Sudeste 0 -- -- 60
2019-04-30 22:00:00 14 2 Sudeste 9 Sudoeste 0 -- -- 52
2019-04-30 21:00:00 18.3 5 Sudoeste 14 Oeste 0 -- -- 36
2019-04-30 20:00:00 21.5 9 Oeste 23 Oeste 0 -- -- 27
2019-04-30 19:00:00 22.3 9 Noroeste 26 Noroeste 0 -- -- 27
2019-04-30 18:00:00 22.3 13 Noroeste 28 Oeste 0 -- -- 26
2019-04-30 17:00:00 22.1 10 Noroeste 26 Oeste 0 -- -- 25
2019-04-30 16:00:00 21.5 15 Noroeste 27 Oeste 0 -- -- 26
2019-04-30 15:00:00 21 10 Oeste 25 Noroeste 0 -- -- 32
2019-04-30 14:00:00 20 9 Noroeste 23 Noroeste 0 -- -- 39
2019-04-30 13:00:00 18.6 12 Noroeste 24 Oeste 0 -- -- 46
2019-04-30 12:00:00 17.1 9 Noroeste 22 Noroeste 0 -- -- 51
2019-04-30 11:00:00 16 14 Noroeste 24 Oeste 0 -- -- 51
2019-04-30 10:00:00 14.1 9 Oeste 16 Oeste 0 -- -- 63
2019-04-30 09:00:00 9.4 3 Nordeste 6 Sudeste 0 -- -- 84
2019-04-30 08:00:00 5.4 0 Calma 6 Noroeste 0 -- -- 95
2019-04-30 07:00:00 4.6 0 Calma -- -- 0 -- -- 94
2019-04-30 06:00:00 5.1 0 Calma -- -- 0 -- -- 94
2019-04-30 05:00:00 6.1 0 Calma -- -- 0 -- -- 92
2019-04-30 04:00:00 6.7 0 Calma -- -- 0 -- -- 91
2019-04-30 03:00:00 7.7 0 Calma 3 Sur 0 -- -- 89
2019-04-30 02:00:00 8.3 0 Calma -- -- 0 -- -- 90
2019-04-30 01:00:00 9.1 0 Calma 2 Oeste 0 -- -- 86
2019-04-30 00:00:00 10 0 Calma 4 Sudoeste 0 -- -- 81
2019-04-29 23:00:00 11.6 3 Oeste 5 Noroeste 0 -- -- 76
2019-04-29 22:00:00 14.3 3 Sur 8 Sudoeste 0 -- -- 65
2019-04-29 21:00:00 17.7 5 Sudeste 10 Sudoeste 0 -- -- 53
2019-04-29 20:00:00 21.1 6 Sudoeste 13 Norte 0 -- -- 41
2019-04-29 19:00:00 20.8 9 Noroeste 19 Oeste 0 -- -- 37
2019-04-29 18:00:00 20.4 8 Noroeste 24 Oeste 0 -- -- 40
2019-04-29 17:00:00 21.1 13 Noroeste 23 Oeste 0 -- -- 38
2019-04-29 16:00:00 20.6 14 Noroeste 24 Oeste 0 -- -- 41
2019-04-29 15:00:00 19.8 12 Noroeste 28 Oeste 0 -- -- 41
2019-04-29 14:00:00 18.7 14 Noroeste 25 Noroeste 0 -- -- 43
2019-04-29 13:00:00 17.3 13 Noroeste 31 Oeste 0 -- -- 47
2019-04-29 12:00:00 16.6 14 Noroeste 26 Noroeste 0 -- -- 49
2019-04-29 11:00:00 15.4 12 Oeste 33 Oeste 0 -- -- 52
2019-04-29 10:00:00 12.6 10 Noroeste 26 Oeste 0 -- -- 60
2019-04-29 09:00:00 7 0 Calma 9 Norte 0 -- -- 91
2019-04-29 08:00:00 5.4 2 Este 6 Este 0 -- -- 94
2019-04-29 07:00:00 4.2 2 Oeste 5 Nordeste 0 -- -- 92
2019-04-29 06:00:00 4.7 0 Calma 5 Oeste 0 -- -- 90
2019-04-29 05:00:00 5.6 0 Calma 5 Oeste 0 -- -- 88
2019-04-29 04:00:00 6.4 0 Calma 5 Nordeste 0 -- -- 85
2019-04-29 03:00:00 7.3 2 Sur 4 Sudeste 0 -- -- 83
2019-04-29 02:00:00 7.9 0 Calma 5 Oeste 0 -- -- 81
2019-04-29 01:00:00 8.6 2 Sudeste 5 Sudoeste 0 -- -- 79
2019-04-29 00:00:00 10 3 Sudeste 6 Este 0 -- -- 71
2019-04-28 23:00:00 11.2 0 Calma 4 Sur 0 -- -- 65
2019-04-28 22:00:00 13.9 2 Sudoeste 8 Sudoeste 0 -- -- 58
2019-04-28 21:00:00 18 4 Sudoeste 13 Noroeste 0 -- -- 40
2019-04-28 20:00:00 21.1 11 Oeste 20 Oeste 0 -- -- 30
2019-04-28 19:00:00 21.8 12 Oeste 24 Noroeste 0 -- -- 27
2019-04-28 18:00:00 21.7 10 Oeste 25 Oeste 0 -- -- 28
2019-04-28 17:00:00 21 11 Noroeste 30 Oeste 0 -- -- 30
2019-04-28 16:00:00 20.5 13 Noroeste 30 Noroeste 0 -- -- 28
2019-04-28 15:00:00 19.6 12 Noroeste 31 Oeste 0 -- -- 31
2019-04-28 14:00:00 18.6 15 Noroeste 28 Oeste 0 -- -- 28
2019-04-28 13:00:00 17.2 12 Noroeste 24 Noroeste 0 -- -- 37
2019-04-28 12:00:00 15.8 14 Noroeste 29 Oeste 0 -- -- 42
2019-04-28 11:00:00 14.7 15 Noroeste 27 Oeste 0 -- -- 46
2019-04-28 10:00:00 12.4 7 Noroeste 12 Noroeste 0 -- -- 62
2019-04-28 09:00:00 10.8 4 Norte 12 Sudoeste 0 -- -- 69
2019-04-28 08:00:00 9.3 4 Sur 13 Sudeste 0 -- -- 74
2019-04-28 07:00:00 7.8 6 Sudoeste 10 Sudoeste 0 -- -- 78
2019-04-28 06:00:00 9 6 Sudoeste 20 Oeste 0 -- -- 73
2019-04-28 05:00:00 10.1 9 Sudoeste 32 Oeste 0 -- -- 69
2019-04-28 04:00:00 10.5 13 Oeste 30 Oeste 0 -- -- 66
2019-04-28 03:00:00 11.4 12 Oeste 30 Oeste 0 -- -- 63
2019-04-28 02:00:00 11.9 12 Oeste 27 Oeste 0 -- -- 61
2019-04-28 01:00:00 13.2 15 Oeste 30 Oeste 0 -- -- 60
2019-04-28 00:00:00 13.6 10 Oeste 24 Oeste 0 -- -- 62
2019-04-27 23:00:00 14.2 9 Oeste 21 Oeste 0 -- -- 62
2019-04-27 22:00:00 14.9 7 Oeste 14 Oeste 0 -- -- 62
2019-04-27 21:00:00 16.8 8 Oeste 24 Oeste 0 -- -- 56
2019-04-27 20:00:00 18.9 14 Oeste 33 Noroeste 0 -- -- 48
2019-04-27 19:00:00 19.7 13 Oeste 25 Noroeste 0 -- -- 46
2019-04-27 18:00:00 19.6 17 Noroeste 32 Noroeste 0 -- -- 43
2019-04-27 17:00:00 20.2 12 Noroeste 29 Noroeste 0 -- -- 44
2019-04-27 16:00:00 19.5 17 Oeste 33 Noroeste 0 -- -- 45
2019-04-27 15:00:00 19.1 11 Oeste 32 Oeste 0 -- -- 48
2019-04-27 14:00:00 18.2 15 Noroeste 30 Oeste 0 -- -- 49
2019-04-27 13:00:00 16.7 16 Oeste 28 Oeste 0 -- -- 52
2019-04-27 12:00:00 15.3 13 Noroeste 31 Oeste 0 -- -- 54
2019-04-27 11:00:00 13.7 12 Oeste 22 Oeste 0 -- -- 58
2019-04-27 10:00:00 11.7 14 Oeste 24 Oeste 0 -- -- 67
2019-04-27 09:00:00 9.8 9 Oeste 20 Oeste 0 -- -- 74
2019-04-27 08:00:00 4.8 0 Calma 8 Noroeste 0 -- -- 95
2019-04-27 07:00:00 4.1 0 Calma 6 Este 0 -- -- 92
2019-04-27 06:00:00 4.1 0 Calma -- -- 0 -- -- 93
2019-04-27 05:00:00 4.2 0 Calma -- -- 0 -- -- 92
2019-04-27 04:00:00 4.2 0 Calma 3 Sudeste 0 -- -- 93
2019-04-27 03:00:00 4.4 0 Calma 6 Oeste 0 -- -- 92
2019-04-27 02:00:00 5.2 0 Calma 5 Oeste 0 -- -- 90
2019-04-27 01:00:00 6.2 0 Calma 4 Sudoeste 0 -- -- 86
2019-04-27 00:00:00 7.3 3 Oeste 4 Oeste 0 -- -- 85
2019-04-26 23:00:00 9 0 Calma 4 Sudoeste 0 -- -- 78
2019-04-26 22:00:00 11.5 0 Calma 9 Sudoeste 0 -- -- 67
2019-04-26 21:00:00 14.6 6 Sudoeste 19 Oeste 0 -- -- 54
2019-04-26 20:00:00 17 11 Noroeste 25 Oeste 0 -- -- 44
2019-04-26 19:00:00 17.5 12 Noroeste 28 Noroeste 0 -- -- 42
2019-04-26 18:00:00 17.7 13 Oeste 31 Oeste 0 -- -- 41
2019-04-26 17:00:00 17.6 15 Noroeste 30 Noroeste 0 -- -- 42
2019-04-26 16:00:00 17.1 12 Noroeste 30 Oeste 0 -- -- 48
2019-04-26 15:00:00 16 12 Noroeste 28 Noroeste 0 -- -- 47
2019-04-26 14:00:00 15.5 19 Noroeste 35 Oeste 0 -- -- 46
2019-04-26 13:00:00 15.1 17 Noroeste 35 Oeste 0 -- -- 49
2019-04-26 12:00:00 14.9 17 Noroeste 36 Oeste 0 -- -- 50
2019-04-26 11:00:00 13.9 21 Noroeste 36 Oeste 0 -- -- 51
2019-04-26 10:00:00 12.7 21 Noroeste 35 Oeste 0 -- -- 55
2019-04-26 09:00:00 11.2 13 Oeste 27 Oeste 0 -- -- 61
2019-04-26 08:00:00 6 5 Oeste 13 Oeste 0 -- -- 87
2019-04-26 07:00:00 3.9 2 Sudeste 5 Oeste 0 -- -- 91
2019-04-26 06:00:00 4.5 0 Calma 7 Sudoeste 0 -- -- 88
2019-04-26 05:00:00 5.6 3 Sudoeste 9 Sudoeste 0 -- -- 83
2019-04-26 04:00:00 7.6 4 Sur 19 Sudoeste 0 -- -- 73
2019-04-26 03:00:00 8.1 6 Sudoeste 19 Oeste 0 -- -- 70
2019-04-26 02:00:00 7.9 3 Sudoeste 17 Oeste 0 -- -- 74
2019-04-26 01:00:00 7 7 Sudoeste 16 Oeste 0 -- -- 79
2019-04-26 00:00:00 6.7 0 Calma 4 Sudeste 0 -- -- 90